createdAt,value
2022-08-26T00:00:30.935Z,97270.38
2022-08-26T00:02:58.349Z,97268.28
2022-08-26T00:05:25.427Z,97272.69
2022-08-26T00:07:52.945Z,97270.56
2022-08-26T00:10:20.808Z,97267.06
2022-08-26T00:12:52.377Z,97266.84
2022-08-26T00:15:21.644Z,97265.31
2022-08-26T00:17:50.323Z,97261.34
2022-08-26T00:20:21.129Z,97267.28
2022-08-26T00:22:47.827Z,97262.06
2022-08-26T00:25:17.295Z,97256.84
2022-08-26T00:27:44.141Z,97253.47
2022-08-26T00:30:13.709Z,97259.34
2022-08-26T00:32:44.026Z,97257.38
2022-08-26T00:35:13.470Z,97256.69
2022-08-26T00:37:41.701Z,97272.75
2022-08-26T00:40:12.576Z,97261.09
2022-08-26T00:42:39.245Z,97263.19
2022-08-26T00:45:14.211Z,97250.03
2022-08-26T00:47:51.705Z,97261.91
2022-08-26T00:50:22.863Z,97260.59
2022-08-26T00:52:50.816Z,97255.88
2022-08-26T00:55:21.638Z,97258.41
2022-08-26T00:57:50.690Z,97251.22
2022-08-26T01:00:20.938Z,97260.75
2022-08-26T01:02:49.940Z,97252.81
2022-08-26T01:05:18.373Z,97268.44
2022-08-26T01:07:46.213Z,97266.69
2022-08-26T01:10:16.674Z,97267.38
2022-08-26T01:12:47.831Z,97252.84
2022-08-26T01:15:19.083Z,97262.50
2022-08-26T01:17:46.011Z,97266.47
2022-08-26T01:20:27.323Z,97260.88
2022-08-26T01:22:57.787Z,97251.66
2022-08-26T01:25:26.219Z,97258.44
2022-08-26T01:27:55.802Z,97259.59
2022-08-26T01:30:24.998Z,97263.09
2022-08-26T01:32:52.112Z,97266.22
2022-08-26T01:35:19.187Z,97267.41
2022-08-26T01:37:50.191Z,97273.09
2022-08-26T01:40:24.670Z,97269.63
2022-08-26T01:42:53.545Z,97268.09
2022-08-26T01:45:24.167Z,97269.59
2022-08-26T01:47:56.588Z,97256.44
2022-08-26T01:50:30.334Z,97266.69
2022-08-26T01:52:58.891Z,97262.81
2022-08-26T01:55:32.775Z,97262.25
2022-08-26T01:58:03.305Z,97264.13
2022-08-26T02:00:29.915Z,97253.16
2022-08-26T02:02:57.752Z,97260.31
2022-08-26T02:05:24.461Z,97261.44
2022-08-26T02:07:51.071Z,97253.16
2022-08-26T02:10:17.636Z,97266.69
2022-08-26T02:12:48.652Z,97270.53
2022-08-26T02:15:15.203Z,97260.53
2022-08-26T02:17:46.877Z,97266.44
2022-08-26T02:20:18.093Z,97266.22
2022-08-26T02:22:45.376Z,97263.44
2022-08-26T02:25:18.057Z,97260.63
2022-08-26T02:27:47.824Z,97254.91
2022-08-26T02:30:17.770Z,97263.53
2022-08-26T02:32:44.733Z,97255.38
2022-08-26T02:35:13.797Z,97260.06
2022-08-26T02:37:47.248Z,97266.13
2022-08-26T02:40:18.217Z,97261.25
2022-08-26T02:42:44.976Z,97255.28
2022-08-26T02:45:12.892Z,97255.75
2022-08-26T02:47:39.611Z,97257.03
2022-08-26T02:50:07.415Z,97264.03
2022-08-26T02:52:34.676Z,97261.47
2022-08-26T02:55:01.308Z,97253.09
2022-08-26T02:57:28.902Z,97253.81
2022-08-26T02:59:55.451Z,97258.81
2022-08-26T03:02:24.042Z,97262.97
2022-08-26T03:04:57.770Z,97253.09
2022-08-26T03:07:28.775Z,97258.69
2022-08-26T03:09:56.498Z,97259.94
2022-08-26T03:12:23.155Z,97261.22
2022-08-26T03:14:49.749Z,97259.28
2022-08-26T03:17:16.335Z,97248.22
2022-08-26T03:19:44.231Z,97260.19
2022-08-26T03:22:11.206Z,97255.53
2022-08-26T03:24:37.949Z,97255.19
2022-08-26T03:27:05.995Z,97248.44
2022-08-26T03:29:33.988Z,97245.06
2022-08-26T03:32:00.555Z,97240.63
2022-08-26T03:34:27.284Z,97237.97
2022-08-26T03:36:55.740Z,97241.91
2022-08-26T03:39:23.102Z,97237.50
2022-08-26T03:41:49.678Z,97248.19
2022-08-26T03:44:17.716Z,97241.44
2022-08-26T03:46:44.441Z,97233.44
2022-08-26T03:49:11.644Z,97234.69
2022-08-26T03:51:38.705Z,97229.13
2022-08-26T03:54:08.359Z,97217.25
2022-08-26T03:56:35.604Z,97227.69
2022-08-26T03:59:02.674Z,97224.81
2022-08-26T04:01:30.230Z,97230.25
2022-08-26T04:04:00.060Z,97220.75
2022-08-26T04:06:28.758Z,97225.25
2022-08-26T04:08:56.420Z,97229.13
2022-08-26T04:11:27.635Z,97225.06
2022-08-26T04:13:55.088Z,97225.06
2022-08-26T04:16:21.933Z,97232.16
2022-08-26T04:18:49.388Z,97233.75
2022-08-26T04:21:15.960Z,97225.06
2022-08-26T04:23:47.654Z,97225.38
2022-08-26T04:26:14.805Z,97223.53
2022-08-26T04:28:42.747Z,97222.34
2022-08-26T04:31:10.879Z,97229.69
2022-08-26T04:33:41.730Z,97228.16
2022-08-26T04:36:09.135Z,97222.22
2022-08-26T04:38:36.186Z,97214.66
2022-08-26T04:41:05.426Z,97219.78
2022-08-26T04:43:32.173Z,97223.03
2022-08-26T04:46:02.828Z,97218.28
2022-08-26T04:48:30.819Z,97221.41
2022-08-26T04:50:57.409Z,97229.78
2022-08-26T04:53:26.078Z,97221.50
2022-08-26T04:55:55.254Z,97210.13
2022-08-26T04:58:23.285Z,97219.78
2022-08-26T05:00:52.620Z,97225.94
2022-08-26T05:03:22.300Z,97232.97
2022-08-26T05:05:49.613Z,97227.38
2022-08-26T05:08:18.029Z,97228.19
2022-08-26T05:10:47.453Z,97232.31
2022-08-26T05:13:15.900Z,97247.88
2022-08-26T05:15:44.062Z,97240.25
2022-08-26T05:18:11.184Z,97239.13
2022-08-26T05:20:41.600Z,97242.59
2022-08-26T05:23:08.884Z,97247.56
2022-08-26T05:25:38.033Z,97255.16
2022-08-26T05:28:04.668Z,97253.47
2022-08-26T05:30:32.243Z,97252.66
2022-08-26T05:32:59.177Z,97250.66
2022-08-26T05:35:28.266Z,97257.78
2022-08-26T05:38:00.030Z,97257.78
2022-08-26T05:40:27.629Z,97253.72
2022-08-26T05:42:55.304Z,97255.78
2022-08-26T05:45:21.872Z,97254.84
2022-08-26T05:47:49.663Z,97260.28
2022-08-26T05:50:17.757Z,97260.00
2022-08-26T05:52:44.525Z,97260.63
2022-08-26T05:55:12.437Z,97259.22
2022-08-26T05:57:42.825Z,97266.97
2022-08-26T06:00:11.019Z,97259.84
2022-08-26T06:02:37.653Z,97257.41
2022-08-26T06:05:04.754Z,97260.13
2022-08-26T06:07:34.184Z,97253.31
2022-08-26T06:10:28.295Z,97256.81
2022-08-26T06:12:48.795Z,97256.09
2022-08-26T06:15:15.614Z,97256.06
2022-08-26T06:17:42.263Z,97258.00
2022-08-26T06:20:10.287Z,97264.06
2022-08-26T06:22:36.988Z,97261.81
2022-08-26T06:25:03.814Z,97265.13
2022-08-26T06:27:32.774Z,97263.88
2022-08-26T06:30:00.835Z,97263.63
2022-08-26T06:32:27.461Z,97259.50
2022-08-26T06:34:53.997Z,97264.09
2022-08-26T06:37:20.585Z,97260.00
2022-08-26T06:39:47.594Z,97256.88
2022-08-26T06:42:17.837Z,97248.66
2022-08-26T06:44:44.972Z,97250.09
2022-08-26T06:47:12.937Z,97250.59
2022-08-26T06:49:39.840Z,97248.22
2022-08-26T06:52:06.464Z,97258.50
2022-08-26T06:54:33.018Z,97260.53
2022-08-26T06:57:00.126Z,97257.09
2022-08-26T06:59:26.764Z,97252.56
2022-08-26T07:01:53.711Z,97257.97
2022-08-26T07:04:23.256Z,97255.41
2022-08-26T07:06:53.386Z,97259.91
2022-08-26T07:09:22.586Z,97257.28
2022-08-26T07:11:49.411Z,97249.38
2022-08-26T07:14:16.019Z,97256.44
2022-08-26T07:16:42.557Z,97253.19
2022-08-26T07:19:11.086Z,97249.34
2022-08-26T07:21:40.460Z,97250.44
2022-08-26T07:24:07.232Z,97255.16
2022-08-26T07:26:33.801Z,97255.97
2022-08-26T07:29:01.655Z,97256.19
2022-08-26T07:31:33.609Z,97253.72
2022-08-26T07:34:05.687Z,97256.31
2022-08-26T07:36:32.240Z,97255.28
2022-08-26T07:39:00.118Z,97257.81
2022-08-26T07:41:26.979Z,97257.06
2022-08-26T07:43:54.458Z,97256.38
2022-08-26T07:46:27.064Z,97252.72
2022-08-26T07:48:57.380Z,97257.44
2022-08-26T07:51:24.404Z,97252.97
2022-08-26T07:53:52.897Z,97254.53
2022-08-26T07:56:22.027Z,97251.31
2022-08-26T07:58:51.415Z,97258.31
2022-08-26T08:01:18.901Z,97254.25
2022-08-26T08:03:45.524Z,97246.63
2022-08-26T08:06:12.367Z,97251.06
2022-08-26T08:08:38.921Z,97249.19
2022-08-26T08:11:06.404Z,97248.41
2022-08-26T08:13:34.620Z,97244.81
2022-08-26T08:16:01.211Z,97247.66
2022-08-26T08:18:27.743Z,97247.16
2022-08-26T08:20:59.138Z,97245.09
2022-08-26T08:23:25.929Z,97245.00
2022-08-26T08:26:00.457Z,97244.78
2022-08-26T08:28:27.052Z,97237.94
2022-08-26T08:30:55.073Z,97243.59
2022-08-26T08:33:21.659Z,97241.22
2022-08-26T08:35:48.462Z,97238.38
2022-08-26T08:38:15.433Z,97232.31
2022-08-26T08:40:44.819Z,97237.13
2022-08-26T08:43:13.303Z,97235.50
2022-08-26T08:45:47.152Z,97240.63
2022-08-26T08:48:24.325Z,97233.84
2022-08-26T08:50:58.765Z,97232.97
2022-08-26T08:53:31.955Z,97224.94
2022-08-26T08:56:04.811Z,97219.31
2022-08-26T08:58:46.419Z,97222.19
2022-08-26T09:01:24.918Z,97227.44
2022-08-26T09:04:03.855Z,97223.41
2022-08-26T09:06:30.869Z,97221.00
2022-08-26T09:08:57.708Z,97218.94
2022-08-26T09:11:24.239Z,97218.88
2022-08-26T09:13:55.050Z,97211.13
2022-08-26T09:16:27.232Z,97198.78
2022-08-26T09:19:19.027Z,97206.00
2022-08-26T09:21:45.881Z,97213.28
2022-08-26T09:24:13.996Z,97203.63
2022-08-26T09:26:47.378Z,97206.84
2022-08-26T09:31:48.646Z,97203.22
2022-08-26T09:34:20.952Z,97193.97
2022-08-26T09:36:49.668Z,97198.69
2022-08-26T09:39:31.887Z,97192.53
2022-08-26T09:42:07.006Z,97193.28
2022-08-26T09:44:35.050Z,97194.97
2022-08-26T09:47:04.714Z,97187.28
2022-08-26T09:49:36.471Z,97181.78
2022-08-26T09:52:15.570Z,97180.88
2022-08-26T09:54:43.524Z,97175.22
2022-08-26T09:57:17.500Z,97173.16
2022-08-26T09:59:44.395Z,97165.41
2022-08-26T10:02:23.628Z,97172.94
2022-08-26T10:04:55.926Z,97160.84
2022-08-26T10:07:42.223Z,97162.09
2022-08-26T10:10:13.614Z,97159.09
2022-08-26T10:12:46.110Z,97156.19
2022-08-26T10:15:15.201Z,97158.22
2022-08-26T10:17:47.361Z,97153.25
2022-08-26T10:20:23.220Z,97145.97
2022-08-26T10:22:58.553Z,97138.38
2022-08-26T10:25:31.717Z,97132.91
2022-08-26T10:28:04.117Z,97136.16
2022-08-26T10:30:37.129Z,97131.88
2022-08-26T10:33:07.233Z,97125.91
2022-08-26T10:35:40.467Z,97119.59
2022-08-26T10:38:11.131Z,97113.88
2022-08-26T10:40:46.616Z,97109.94
2022-08-26T10:43:19.112Z,97105.66
2022-08-26T10:45:50.015Z,97101.88
2022-08-26T10:48:19.009Z,97089.59
2022-08-26T10:50:49.580Z,97098.69
2022-08-26T10:53:25.130Z,97099.81
2022-08-26T10:55:59.581Z,97101.66
2022-08-26T10:58:41.018Z,97100.88
2022-08-26T11:01:22.710Z,97101.06
2022-08-26T11:03:58.384Z,97087.28
2022-08-26T11:06:29.054Z,97087.03
2022-08-26T11:08:57.767Z,97085.53
2022-08-26T11:11:48.128Z,97081.91
2022-08-26T11:14:34.200Z,97084.84
2022-08-26T11:17:12.693Z,97085.78
2022-08-26T11:20:03.326Z,97089.47
2022-08-26T11:22:37.430Z,97082.69
2022-08-26T11:25:11.579Z,97084.28
2022-08-26T11:27:53.959Z,97084.00
2022-08-26T11:30:40.109Z,97078.19
2022-08-26T11:33:06.860Z,97070.53
2022-08-26T11:35:49.389Z,97072.66
2022-08-26T11:38:22.478Z,97075.78
2022-08-26T11:41:07.873Z,97081.13
2022-08-26T11:43:35.864Z,97077.28
2022-08-26T11:46:05.617Z,97073.75
2022-08-26T11:48:36.179Z,97073.91
2022-08-26T11:51:05.621Z,97095.97
2022-08-26T11:53:37.753Z,97111.13
2022-08-26T11:56:08.570Z,97149.16
2022-08-26T12:02:04.367Z,97150.25
2022-08-26T12:04:36.250Z,97158.38
2022-08-26T12:07:04.664Z,97166.34
2022-08-26T12:12:54.183Z,97165.00
2022-08-26T12:15:20.778Z,97165.47
2022-08-26T12:17:52.993Z,97154.19
2022-08-26T12:20:31.293Z,97155.09
2022-08-26T12:22:58.500Z,97160.88
2022-08-26T12:25:26.305Z,97159.38
2022-08-26T12:27:54.239Z,97158.47
2022-08-26T12:30:22.789Z,97136.16
2022-08-26T12:32:57.642Z,97139.44
2022-08-26T12:35:25.683Z,97145.44
2022-08-26T12:37:53.906Z,97144.75
2022-08-26T12:40:35.194Z,97141.22
2022-08-26T12:43:05.281Z,97143.16
2022-08-26T12:45:34.045Z,97153.72
2022-08-26T12:48:05.985Z,97151.38
2022-08-26T12:50:34.664Z,97147.94
2022-08-26T12:53:04.839Z,97152.84
2022-08-26T12:55:40.950Z,97137.09
2022-08-26T12:58:21.554Z,97134.91
2022-08-26T13:00:49.287Z,97111.91
2022-08-26T13:03:37.976Z,97111.69
2022-08-26T13:06:15.672Z,97117.84
2022-08-26T13:08:44.167Z,97118.38
2022-08-26T13:11:14.142Z,97120.94
2022-08-26T13:13:42.013Z,97116.19
2022-08-26T13:16:08.569Z,97119.41
2022-08-26T13:18:35.171Z,97125.59
2022-08-26T13:21:08.636Z,97128.94
2022-08-26T13:23:38.390Z,97129.78
2022-08-26T13:26:07.236Z,97131.81
2022-08-26T13:28:33.841Z,97128.88
2022-08-26T13:31:01.964Z,97126.75
2022-08-26T13:33:28.669Z,97125.09
2022-08-26T13:35:55.251Z,97115.44
2022-08-26T13:38:32.964Z,97118.25
2022-08-26T13:41:00.324Z,97117.84
2022-08-26T13:43:27.441Z,97113.97
2022-08-26T13:45:54.281Z,97113.66
2022-08-26T13:48:23.515Z,97117.25
2022-08-26T13:50:50.485Z,97116.31
2022-08-26T13:53:17.346Z,97128.28
2022-08-26T13:55:43.912Z,97129.56
2022-08-26T13:58:10.781Z,97120.38
2022-08-26T14:00:38.135Z,97130.06
2022-08-26T14:03:05.634Z,97123.75
2022-08-26T14:05:36.138Z,97130.69
2022-08-26T14:08:03.677Z,97120.38
2022-08-26T14:10:30.266Z,97121.56
2022-08-26T14:12:56.826Z,97122.75
2022-08-26T14:15:23.461Z,97113.22
2022-08-26T14:17:51.605Z,97120.78
2022-08-26T14:20:23.569Z,97107.97
2022-08-26T14:23:12.503Z,97105.97
2022-08-26T14:25:38.221Z,97094.19
2022-08-26T14:28:04.733Z,97095.47
2022-08-26T14:30:31.673Z,97110.19
2022-08-26T14:32:58.891Z,97105.69
2022-08-26T14:35:27.806Z,97110.84
2022-08-26T14:37:56.462Z,97097.91
2022-08-26T14:40:27.168Z,97091.59
2022-08-26T14:42:54.361Z,97088.25
2022-08-26T14:45:23.805Z,97087.16
2022-08-26T14:47:51.797Z,97072.88
2022-08-26T14:50:21.382Z,97077.38
2022-08-26T14:52:48.074Z,97068.59
2022-08-26T14:55:15.974Z,97063.41
2022-08-26T14:57:42.488Z,97060.72
2022-08-26T15:00:10.373Z,97060.47
2022-08-26T15:02:36.945Z,97072.56
2022-08-26T15:05:03.857Z,97066.22
2022-08-26T15:07:30.972Z,97063.69
2022-08-26T15:09:57.918Z,97076.03
2022-08-26T15:12:25.850Z,97071.69
2022-08-26T15:14:52.354Z,97079.00
2022-08-26T15:17:18.898Z,97076.75
2022-08-26T15:19:45.413Z,97073.97
2022-08-26T15:22:11.968Z,97063.84
2022-08-26T15:24:38.525Z,97059.75
2022-08-26T15:27:05.173Z,97049.44
2022-08-26T15:29:33.219Z,97050.34
2022-08-26T15:32:03.461Z,97036.44
2022-08-26T15:34:30.294Z,97035.06
2022-08-26T15:36:56.821Z,97030.72
2022-08-26T15:39:24.028Z,97023.63
2022-08-26T15:41:50.740Z,97016.53
2022-08-26T15:44:17.293Z,97021.44
2022-08-26T15:46:47.184Z,97015.03
2022-08-26T15:49:17.542Z,97018.31
2022-08-26T15:51:46.345Z,97009.13
2022-08-26T15:54:13.607Z,97001.88
2022-08-26T15:56:40.136Z,97004.28
2022-08-26T15:59:07.367Z,96995.84
2022-08-26T16:01:34.071Z,96995.44
2022-08-26T16:04:02.704Z,96989.69
2022-08-26T16:06:31.148Z,96993.22
2022-08-26T16:08:58.357Z,96992.03
2022-08-26T16:11:25.512Z,96986.84
2022-08-26T16:13:52.238Z,96986.41
2022-08-26T16:16:19.025Z,96983.56
2022-08-26T16:18:45.679Z,96980.34
2022-08-26T16:21:16.660Z,96974.28
2022-08-26T16:23:45.324Z,96983.56
2022-08-26T16:26:14.977Z,96984.78
2022-08-26T16:28:41.535Z,96977.19
2022-08-26T16:31:10.765Z,96980.41
2022-08-26T16:33:37.354Z,96988.50
2022-08-26T16:36:04.071Z,96982.03
2022-08-26T16:38:32.289Z,96979.91
2022-08-26T16:40:58.942Z,96986.22
2022-08-26T16:43:25.495Z,96984.94
2022-08-26T16:45:52.078Z,96988.53
2022-08-26T16:48:18.620Z,96993.31
2022-08-26T16:50:45.381Z,96986.00
2022-08-26T16:55:46.252Z,97004.16
2022-08-26T16:58:12.801Z,97000.97
2022-08-26T17:00:39.353Z,97005.47
2022-08-26T17:03:05.943Z,97004.25
2022-08-26T17:05:32.522Z,97007.09
2022-08-26T17:08:00.125Z,97009.00
2022-08-26T17:10:28.560Z,97012.88
2022-08-26T17:12:57.174Z,97019.66
2022-08-26T17:15:24.376Z,97014.44
2022-08-26T17:17:51.353Z,97010.88
2022-08-26T17:20:18.581Z,97012.50
2022-08-26T17:22:47.367Z,97007.69
2022-08-26T17:25:16.418Z,96999.22
2022-08-26T17:27:43.419Z,97000.00
2022-08-26T17:30:12.614Z,96991.91
2022-08-26T17:32:39.242Z,96988.72
2022-08-26T17:35:06.190Z,96994.19
2022-08-26T17:37:32.815Z,96999.00
2022-08-26T17:39:59.386Z,97006.94
2022-08-26T17:42:31.831Z,97003.66
2022-08-26T17:44:58.521Z,97009.66
2022-08-26T17:47:26.501Z,97021.03
2022-08-26T17:49:53.032Z,97037.66
2022-08-26T17:52:19.635Z,97046.53
2022-08-26T17:54:46.142Z,97066.97
2022-08-26T17:57:12.669Z,97068.06
2022-08-26T17:59:39.174Z,97070.09
2022-08-26T18:02:07.865Z,97066.53
2022-08-26T18:04:35.741Z,97066.94
2022-08-26T18:07:02.297Z,97068.94
2022-08-26T18:09:29.354Z,97068.50
2022-08-26T18:11:55.879Z,97056.00
2022-08-26T18:14:22.397Z,97069.47
2022-08-26T18:16:49.279Z,97081.38
2022-08-26T18:19:15.818Z,97084.19
2022-08-26T18:21:44.014Z,97083.03
2022-08-26T18:24:14.070Z,97073.44
2022-08-26T18:26:42.321Z,97082.66
2022-08-26T18:29:08.853Z,97078.59
2022-08-26T18:31:35.438Z,97076.25
2022-08-26T18:34:02.872Z,97096.56
2022-08-26T18:36:32.778Z,97083.28
2022-08-26T18:39:00.910Z,97101.13
2022-08-26T18:41:31.161Z,97097.13
2022-08-26T18:43:58.414Z,97114.16
2022-08-26T18:46:27.322Z,97115.34
2022-08-26T18:48:55.152Z,97120.00
2022-08-26T18:51:24.739Z,97125.38
2022-08-26T18:53:51.474Z,97146.97
2022-08-26T18:56:19.630Z,97145.78
2022-08-26T18:58:46.633Z,97151.25
2022-08-26T19:01:13.457Z,97146.91
2022-08-26T19:03:40.083Z,97146.81
2022-08-26T19:06:07.121Z,97149.19
2022-08-26T19:08:33.654Z,97152.00
2022-08-26T19:11:00.728Z,97153.50
2022-08-26T19:13:28.590Z,97151.78
2022-08-26T19:15:55.146Z,97150.53
2022-08-26T19:18:21.659Z,97146.97
2022-08-26T19:20:48.168Z,97142.13
2022-08-26T19:23:31.074Z,97141.75
2022-08-26T19:25:58.679Z,97130.28
2022-08-26T19:28:25.225Z,97125.09
2022-08-26T19:30:54.763Z,97117.41
2022-08-26T19:33:21.674Z,97120.22
2022-08-26T19:35:48.204Z,97127.31
2022-08-26T19:38:14.751Z,97128.31
2022-08-26T19:40:41.503Z,97133.16
2022-08-26T19:43:08.735Z,97133.31
2022-08-26T19:45:38.740Z,97137.88
2022-08-26T19:48:06.740Z,97130.81
2022-08-26T19:50:34.486Z,97137.66
2022-08-26T19:53:01.611Z,97143.63
2022-08-26T19:55:28.132Z,97144.00
2022-08-26T19:57:54.765Z,97137.97
2022-08-26T20:00:24.512Z,97128.22
2022-08-26T20:02:51.520Z,97134.25
2022-08-26T20:05:21.640Z,97131.81
2022-08-26T20:07:48.896Z,97139.88
2022-08-26T20:10:17.813Z,97133.66
2022-08-26T20:12:44.406Z,97132.84
2022-08-26T20:15:12.867Z,97135.63
2022-08-26T20:17:40.230Z,97132.03
2022-08-26T20:20:14.710Z,97135.34
2022-08-26T20:22:57.410Z,97139.34
2022-08-26T20:25:24.054Z,97144.56
2022-08-26T20:27:50.649Z,97143.06
2022-08-26T20:30:17.291Z,97136.81
2022-08-26T20:32:43.815Z,97139.16
2022-08-26T20:35:12.941Z,97149.03
2022-08-26T20:37:40.020Z,97141.28
2022-08-26T20:40:10.263Z,97137.75
2022-08-26T20:42:36.808Z,97150.94
2022-08-26T20:45:04.155Z,97153.81
2022-08-26T20:47:30.732Z,97149.75
2022-08-26T20:49:57.392Z,97168.91
2022-08-26T20:52:23.933Z,97156.00
2022-08-26T20:54:50.454Z,97155.63
2022-08-26T20:57:18.301Z,97149.16
2022-08-26T20:59:44.795Z,97151.16
2022-08-26T21:02:11.301Z,97149.50
2022-08-26T21:04:37.840Z,97148.69
2022-08-26T21:07:04.464Z,97148.03
2022-08-26T21:09:32.557Z,97164.31
2022-08-26T21:11:59.066Z,97157.44
2022-08-26T21:14:26.941Z,97160.25
2022-08-26T21:16:53.672Z,97153.41
2022-08-26T21:19:20.358Z,97148.63
2022-08-26T21:21:48.513Z,97149.69
2022-08-26T21:24:15.436Z,97138.78
2022-08-26T21:26:42.472Z,97134.38
2022-08-26T21:29:09.104Z,97122.00
2022-08-26T21:31:40.954Z,97118.03
2022-08-26T21:34:11.513Z,97115.06
2022-08-26T21:36:38.108Z,97106.53
2022-08-26T21:39:09.300Z,97110.78
2022-08-26T21:41:38.338Z,97110.31
2022-08-26T21:44:04.826Z,97114.19
2022-08-26T21:46:31.691Z,97110.25
2022-08-26T21:49:01.076Z,97102.66
2022-08-26T21:51:29.598Z,97096.41
2022-08-26T21:53:56.901Z,97098.22
2022-08-26T21:56:26.189Z,97092.91
2022-08-26T21:58:53.424Z,97111.84
2022-08-26T22:01:22.135Z,97118.34
2022-08-26T22:03:49.593Z,97123.47
2022-08-26T22:06:19.779Z,97118.41
2022-08-26T22:08:46.658Z,97127.19
2022-08-26T22:11:13.518Z,97126.72
2022-08-26T22:13:42.256Z,97127.97
2022-08-26T22:16:09.488Z,97118.41
2022-08-26T22:18:36.440Z,97125.38
2022-08-26T22:21:06.033Z,97136.91
2022-08-26T22:23:34.459Z,97126.97
2022-08-26T22:26:01.236Z,97121.84
2022-08-26T22:28:28.150Z,97120.78
2022-08-26T22:30:54.959Z,97129.44
2022-08-26T22:33:22.319Z,97156.03
2022-08-26T22:35:49.924Z,97161.38
2022-08-26T22:38:17.394Z,97158.28
2022-08-26T22:40:46.858Z,97155.94
2022-08-26T22:43:14.274Z,97155.59
2022-08-26T22:45:41.454Z,97146.13
2022-08-26T22:48:09.464Z,97141.50
2022-08-26T22:50:36.491Z,97161.00
2022-08-26T22:53:03.556Z,97159.56
2022-08-26T22:55:30.256Z,97152.81
2022-08-26T22:57:58.134Z,97169.13
2022-08-26T23:00:32.028Z,97164.78
2022-08-26T23:02:59.967Z,97163.25
2022-08-26T23:05:26.512Z,97165.34
2022-08-26T23:07:53.220Z,97158.66
2022-08-26T23:10:19.941Z,97160.22
2022-08-26T23:12:46.463Z,97156.38
2022-08-26T23:15:14.477Z,97167.03
2022-08-26T23:17:42.844Z,97171.28
2022-08-26T23:20:11.540Z,97165.69
2022-08-26T23:22:39.018Z,97160.91
2022-08-26T23:25:07.997Z,97154.50
2022-08-26T23:27:35.378Z,97160.09
2022-08-26T23:30:01.889Z,97159.75
2022-08-26T23:32:29.767Z,97159.47
2022-08-26T23:34:56.269Z,97154.31
2022-08-26T23:37:23.146Z,97155.84
2022-08-26T23:39:51.730Z,97150.25
2022-08-26T23:42:18.418Z,97141.69
2022-08-26T23:44:44.966Z,97150.34
2022-08-26T23:47:12.048Z,97141.63
2022-08-26T23:49:40.420Z,97143.03
2022-08-26T23:52:07.634Z,97139.00
2022-08-26T23:54:34.220Z,97140.63
2022-08-26T23:57:00.765Z,97145.28
2022-08-26T23:59:27.291Z,97151.50
